Time;durP1;ratioP1;P1;durP2;ratioP2;P2;SDS_P1;SDS_P2;PMS_P1;PMS_P2;Temp;Humidity;BMP_temperature;BMP_pressure;BME280_temperature;BME280_humidity;BME280_pressure;Samples;Min_cycle;Max_cycle;Signal;HPM_P1;HPM_P2
2022/04/27 00:00:33;;;;;;;0.40;0.20;;;9.60;99.90;;;;;;5013710;28;20389;-68
2022/04/27 00:03:00;;;;;;;0.40;0.20;;;9.40;99.90;;;;;;5014456;28;20387;-68
2022/04/27 00:05:26;;;;;;;0.40;0.30;;;9.50;99.90;;;;;;5012495;28;20488;-69
2022/04/27 00:07:51;;;;;;;0.40;0.30;;;9.40;99.90;;;;;;5013120;28;20471;-69
2022/04/27 00:10:21;;;;;;;0.40;0.30;;;9.40;99.90;;;;;;5012515;28;20413;-69
2022/04/27 00:12:47;;;;;;;0.40;0.20;;;9.50;99.90;;;;;;5013664;28;20385;-68
2022/04/27 00:15:14;;;;;;;0.40;0.20;;;9.50;99.90;;;;;;5013071;28;20393;-70
2022/04/27 00:17:40;;;;;;;0.80;0.80;;;9.60;99.90;;;;;;5013387;28;20389;-68
2022/04/27 00:20:07;;;;;;;0.40;0.20;;;9.60;99.90;;;;;;5008925;28;20444;-68
2022/04/27 00:22:33;;;;;;;0.70;0.70;;;9.70;99.90;;;;;;5012636;28;20397;-68
2022/04/27 00:25:03;;;;;;;0.40;0.20;;;9.60;99.90;;;;;;5001259;28;20537;-68
2022/04/27 00:27:30;;;;;;;0.40;0.20;;;9.50;99.90;;;;;;5010060;28;20497;-69
2022/04/27 00:29:57;;;;;;;0.50;0.50;;;9.50;99.90;;;;;;4998777;28;20935;-68
2022/04/27 00:32:23;;;;;;;0.40;0.20;;;9.50;99.90;;;;;;5018500;28;20513;-68
2022/04/27 00:34:48;;;;;;;0.40;0.20;;;9.50;99.90;;;;;;5013248;28;21010;-70
2022/04/27 00:37:15;;;;;;;0.40;0.20;;;9.70;99.90;;;;;;4998295;28;20410;-69
2022/04/27 00:39:41;;;;;;;0.40;0.30;;;9.70;99.90;;;;;;5008048;28;20504;-68
2022/04/27 00:42:15;;;;;;;0.40;0.20;;;9.60;99.90;;;;;;5006281;28;20487;-69
2022/04/27 00:44:44;;;;;;;0.40;0.40;;;9.50;99.90;;;;;;5012911;28;20399;-69
2022/04/27 00:47:10;;;;;;;0.50;0.50;;;9.30;99.90;;;;;;5013482;28;20507;-69
2022/04/27 00:49:37;;;;;;;0.40;0.30;;;9.30;99.90;;;;;;4996789;28;20537;-71
2022/04/27 00:52:03;;;;;;;0.40;0.30;;;9.20;99.90;;;;;;5013106;28;20396;-69
2022/04/27 00:54:29;;;;;;;0.40;0.20;;;9.10;99.90;;;;;;5028140;28;20384;-68
2022/04/27 00:56:55;;;;;;;0.40;0.20;;;9.20;99.90;;;;;;4999389;28;20760;-69
2022/04/27 00:59:21;;;;;;;0.40;0.20;;;9.40;99.90;;;;;;5009891;28;20389;-68
2022/04/27 01:01:47;;;;;;;0.40;0.20;;;9.40;99.90;;;;;;5012173;28;20463;-71
2022/04/27 01:04:12;;;;;;;0.40;0.20;;;9.40;99.90;;;;;;5013590;28;20389;-68
2022/04/27 01:06:39;;;;;;;0.40;0.20;;;9.20;99.90;;;;;;5002897;28;20441;-68
2022/04/27 01:09:05;;;;;;;0.40;0.20;;;9.10;99.90;;;;;;5007225;28;20423;-69
2022/04/27 01:11:32;;;;;;;0.40;0.20;;;9.10;99.90;;;;;;5005892;28;20402;-68
2022/04/27 01:13:58;;;;;;;0.40;0.20;;;9.00;99.90;;;;;;5012333;28;20404;-68
2022/04/27 01:16:25;;;;;;;0.40;0.30;;;9.00;99.90;;;;;;5012446;28;20478;-68
2022/04/27 01:18:51;;;;;;;0.60;0.30;;;8.90;99.90;;;;;;5012992;28;20901;-68
2022/04/27 01:21:18;;;;;;;0.40;0.20;;;8.90;99.90;;;;;;5010591;28;20405;-68
2022/04/27 01:23:43;;;;;;;0.52;0.52;;;8.80;99.90;;;;;;5012904;28;20462;-68
2022/04/27 01:26:10;;;;;;;0.40;0.20;;;8.60;99.90;;;;;;5011996;28;20869;-68
2022/04/27 01:28:37;;;;;;;0.60;0.50;;;8.60;99.90;;;;;;5012996;28;20436;-68
2022/04/27 01:31:09;;;;;;;0.40;0.30;;;8.50;99.90;;;;;;5014909;28;20952;-68
2022/04/27 01:33:35;;;;;;;0.40;0.20;;;8.40;99.90;;;;;;5033204;28;20864;-68
2022/04/27 01:36:02;;;;;;;0.40;0.20;;;8.40;99.90;;;;;;5021888;28;20422;-68
2022/04/27 01:38:37;;;;;;;0.40;0.20;;;8.20;99.90;;;;;;5009195;28;20454;-68
2022/04/27 01:41:03;;;;;;;0.40;0.20;;;8.10;99.90;;;;;;5011628;28;20424;-68
2022/04/27 01:43:29;;;;;;;0.40;0.28;;;8.00;99.90;;;;;;5011511;28;20381;-68
2022/04/27 01:45:56;;;;;;;0.40;0.20;;;8.00;99.90;;;;;;5012261;28;20459;-68
2022/04/27 01:48:22;;;;;;;0.40;0.28;;;8.10;99.90;;;;;;5011777;28;20417;-68
2022/04/27 01:50:48;;;;;;;0.40;0.20;;;8.00;99.90;;;;;;5012114;28;20389;-68
2022/04/27 01:55:59;;;;;;;0.90;0.90;;;8.00;99.90;;;;;;5012559;28;20434;-68
2022/04/27 01:58:25;;;;;;;0.40;0.20;;;7.80;99.90;;;;;;4999165;28;20760;-71
2022/04/27 02:00:52;;;;;;;0.40;0.20;;;7.70;99.90;;;;;;5008183;28;20389;-68
2022/04/27 02:03:18;;;;;;;0.40;0.20;;;7.60;99.90;;;;;;5027476;28;20385;-68
2022/04/27 02:05:45;;;;;;;0.40;0.20;;;7.70;99.90;;;;;;5010287;28;20876;-68
2022/04/27 02:08:11;;;;;;;0.40;0.20;;;7.60;99.90;;;;;;5012295;28;20427;-68
2022/04/27 02:10:37;;;;;;;0.40;0.20;;;7.50;99.90;;;;;;5026151;28;20427;-69
2022/04/27 02:13:05;;;;;;;0.40;0.20;;;7.50;99.90;;;;;;5012177;28;20379;-68
2022/04/27 02:15:31;;;;;;;0.40;0.20;;;7.40;99.90;;;;;;5011976;28;20885;-68
2022/04/27 02:17:57;;;;;;;0.40;0.20;;;7.30;99.90;;;;;;5010990;28;20394;-68
2022/04/27 02:20:23;;;;;;;0.40;0.40;;;7.40;99.90;;;;;;5012200;28;20857;-68
2022/04/27 02:22:50;;;;;;;0.40;0.20;;;7.30;99.90;;;;;;5011196;28;20405;-68
2022/04/27 02:25:16;;;;;;;0.70;0.70;;;7.30;99.90;;;;;;5011970;28;20395;-68
2022/04/27 02:27:42;;;;;;;0.40;0.20;;;7.30;99.90;;;;;;5011796;28;20874;-68
2022/04/27 02:30:09;;;;;;;0.40;0.20;;;7.20;99.90;;;;;;5010894;28;20995;-68
2022/04/27 02:32:35;;;;;;;0.40;0.20;;;7.10;99.90;;;;;;5041068;28;20395;-68
2022/04/27 02:35:00;;;;;;;0.40;0.30;;;7.10;99.90;;;;;;5020923;28;20393;-69
2022/04/27 02:37:26;;;;;;;0.40;0.20;;;7.10;99.90;;;;;;5011332;28;20400;-68
2022/04/27 02:39:52;;;;;;;0.47;0.40;;;7.00;99.90;;;;;;5010986;28;20470;-71
2022/04/27 02:42:18;;;;;;;0.40;0.20;;;7.00;99.90;;;;;;5011058;28;20385;-69
2022/04/27 02:44:44;;;;;;;0.70;0.70;;;7.00;99.90;;;;;;5011439;28;20492;-69
2022/04/27 02:47:09;;;;;;;0.60;0.60;;;7.00;99.90;;;;;;5010395;28;20467;-68
2022/04/27 02:52:19;;;;;;;0.40;0.20;;;6.90;99.90;;;;;;5010475;28;20896;-69
2022/04/27 02:54:45;;;;;;;0.40;0.20;;;6.90;99.90;;;;;;5011586;28;20428;-69
2022/04/27 02:57:11;;;;;;;0.50;0.50;;;6.80;99.90;;;;;;5009920;28;20392;-69
2022/04/27 02:59:37;;;;;;;0.40;0.20;;;6.90;99.90;;;;;;5004291;28;20943;-69
2022/04/27 03:02:02;;;;;;;0.40;0.20;;;6.80;99.90;;;;;;4994745;28;20412;-69
2022/04/27 03:04:28;;;;;;;0.40;0.40;;;6.80;99.90;;;;;;5010298;28;20408;-69
2022/04/27 03:06:54;;;;;;;0.40;0.30;;;6.80;99.90;;;;;;5009825;28;20405;-69
2022/04/27 03:09:20;;;;;;;0.40;0.30;;;6.80;99.90;;;;;;5010498;28;20392;-69
2022/04/27 03:11:46;;;;;;;0.40;0.30;;;6.70;99.90;;;;;;5010956;28;20385;-69
2022/04/27 03:14:11;;;;;;;0.40;0.30;;;6.60;99.90;;;;;;5023395;28;20414;-68
2022/04/27 03:16:37;;;;;;;0.40;0.20;;;6.80;99.90;;;;;;5009912;28;20988;-69
2022/04/27 03:19:02;;;;;;;0.40;0.20;;;6.60;99.90;;;;;;5010864;28;20385;-69
2022/04/27 03:21:29;;;;;;;0.40;0.20;;;6.50;99.90;;;;;;5010334;28;20870;-69
2022/04/27 03:23:56;;;;;;;0.70;0.70;;;6.60;99.90;;;;;;5010698;28;20473;-69
2022/04/27 03:26:21;;;;;;;0.40;0.20;;;6.50;99.90;;;;;;5009436;28;20834;-69
2022/04/27 03:28:47;;;;;;;0.40;0.20;;;6.40;99.90;;;;;;5009351;28;20416;-68
2022/04/27 03:31:13;;;;;;;0.40;0.20;;;6.40;99.90;;;;;;5010002;28;20403;-69
2022/04/27 03:33:39;;;;;;;0.40;0.20;;;6.40;99.90;;;;;;5023062;28;20442;-68
2022/04/27 03:36:08;;;;;;;0.40;0.20;;;6.40;99.90;;;;;;4993000;28;20412;-69
2022/04/27 03:38:34;;;;;;;0.40;0.20;;;6.50;99.90;;;;;;5007796;28;20403;-72
2022/04/27 03:41:00;;;;;;;0.40;0.20;;;6.30;99.90;;;;;;5009909;28;20424;-68
2022/04/27 03:43:27;;;;;;;1.90;1.00;;;6.40;99.90;;;;;;4993673;28;21422;-69
2022/04/27 03:45:52;;;;;;;0.40;0.30;;;6.50;99.90;;;;;;4994160;28;20389;-69
2022/04/27 03:48:18;;;;;;;0.40;0.20;;;6.50;99.90;;;;;;5009781;28;20563;-69
2022/04/27 03:50:44;;;;;;;1.00;0.60;;;6.40;99.90;;;;;;5010406;28;20385;-71
2022/04/27 03:53:10;;;;;;;0.40;0.20;;;6.30;99.90;;;;;;5010964;28;20443;-68
2022/04/27 03:55:36;;;;;;;1.80;0.93;;;6.40;99.90;;;;;;5026138;28;20522;-68
2022/04/27 03:58:05;;;;;;;0.40;0.20;;;6.40;99.90;;;;;;5009825;28;20399;-69
2022/04/27 04:00:32;;;;;;;2.10;0.70;;;6.30;99.90;;;;;;5011470;28;20388;-69
2022/04/27 04:03:00;;;;;;;0.40;0.20;;;6.30;99.90;;;;;;5024940;28;20448;-69
2022/04/27 04:05:26;;;;;;;0.40;0.20;;;6.30;99.90;;;;;;5009898;28;20400;-69
2022/04/27 04:07:51;;;;;;;0.40;0.20;;;6.20;99.90;;;;;;5001523;28;20818;-68
2022/04/27 04:10:17;;;;;;;0.40;0.40;;;6.30;99.90;;;;;;5008405;28;20401;-68
2022/04/27 04:12:46;;;;;;;0.80;0.80;;;6.20;99.90;;;;;;5010587;28;20861;-68
2022/04/27 04:15:13;;;;;;;0.40;0.20;;;6.30;99.90;;;;;;5010081;28;20381;-68
2022/04/27 04:17:45;;;;;;;0.60;0.60;;;6.30;99.90;;;;;;5010846;28;20389;-69
2022/04/27 04:20:13;;;;;;;0.40;0.20;;;6.20;99.90;;;;;;5005153;28;20412;-68
2022/04/27 04:22:39;;;;;;;0.40;0.20;;;6.20;99.90;;;;;;5001847;28;20820;-70
2022/04/27 04:30:33;;;;;;;0.40;0.20;;;6.30;99.90;;;;;;5010697;28;20438;-68
2022/04/27 04:32:59;;;;;;;0.40;0.20;;;6.30;99.90;;;;;;5015168;28;20439;-68
2022/04/27 04:35:25;;;;;;;0.40;0.20;;;6.20;99.90;;;;;;5011385;28;20385;-69
2022/04/27 04:37:50;;;;;;;0.40;0.20;;;6.30;99.90;;;;;;5013453;28;20423;-68
2022/04/27 04:40:16;;;;;;;0.40;0.20;;;6.40;99.90;;;;;;5012451;28;20413;-71
2022/04/27 04:42:42;;;;;;;0.40;0.28;;;6.40;99.90;;;;;;5013242;28;20885;-68
2022/04/27 04:45:08;;;;;;;0.40;0.28;;;6.30;99.90;;;;;;5013713;28;20404;-69
2022/04/27 04:47:33;;;;;;;0.40;0.20;;;6.40;99.90;;;;;;5012813;28;20424;-69
2022/04/27 04:49:59;;;;;;;0.40;0.30;;;6.50;99.90;;;;;;5013450;28;20388;-69
2022/04/27 04:52:26;;;;;;;0.40;0.20;;;6.40;99.90;;;;;;5009105;28;20392;-70
2022/04/27 04:54:52;;;;;;;1.00;1.00;;;6.50;99.90;;;;;;5020533;28;20396;-69
2022/04/27 04:57:17;;;;;;;0.40;0.20;;;6.50;99.90;;;;;;5013149;28;20754;-69
2022/04/27 04:59:43;;;;;;;0.40;0.20;;;6.60;99.90;;;;;;5012858;28;20461;-69
2022/04/27 05:02:09;;;;;;;0.40;0.20;;;6.50;99.90;;;;;;5013434;28;20424;-69
2022/04/27 05:04:35;;;;;;;0.40;0.20;;;6.40;99.90;;;;;;5012853;28;20921;-69
2022/04/27 05:07:00;;;;;;;0.40;0.20;;;6.50;99.90;;;;;;5009650;28;20432;-68
2022/04/27 05:09:26;;;;;;;0.40;0.20;;;6.50;99.90;;;;;;5013311;28;20395;-69
2022/04/27 05:11:52;;;;;;;0.50;0.50;;;6.60;99.90;;;;;;5012752;28;20376;-69
2022/04/27 05:14:17;;;;;;;0.40;0.20;;;6.70;99.90;;;;;;5013270;28;20399;-69
2022/04/27 05:16:43;;;;;;;0.40;0.20;;;6.60;99.90;;;;;;5012127;28;20389;-69
2022/04/27 05:19:09;;;;;;;0.40;0.38;;;6.70;99.90;;;;;;5013341;28;20385;-69
2022/04/27 05:21:35;;;;;;;1.67;0.70;;;6.70;99.90;;;;;;5012576;28;20471;-69
2022/04/27 05:24:00;;;;;;;0.70;0.70;;;6.80;99.90;;;;;;5012108;28;20893;-69
2022/04/27 05:26:26;;;;;;;0.40;0.20;;;6.90;99.90;;;;;;5000637;28;20414;-68
2022/04/27 05:31:54;;;;;;;0.40;0.20;;;7.10;99.90;;;;;;5007434;28;20450;-68
2022/04/27 05:34:24;;;;;;;0.40;0.20;;;7.30;99.90;;;;;;5001840;28;20451;-68
2022/04/27 05:36:51;;;;;;;0.40;0.20;;;7.30;99.90;;;;;;5012210;28;20497;-68
2022/04/27 05:39:18;;;;;;;0.57;0.52;;;7.50;99.90;;;;;;5011703;28;21019;-68
2022/04/27 05:41:45;;;;;;;0.50;0.50;;;7.50;99.90;;;;;;5012498;28;20468;-68
2022/04/27 05:44:12;;;;;;;0.40;0.20;;;7.60;99.90;;;;;;5011814;28;20467;-68
2022/04/27 05:46:38;;;;;;;0.40;0.20;;;7.70;99.90;;;;;;5009633;28;20407;-68
2022/04/27 05:49:04;;;;;;;0.40;0.20;;;7.80;99.90;;;;;;5011696;28;20424;-70
2022/04/27 05:51:30;;;;;;;0.40;0.20;;;7.80;99.90;;;;;;5009444;28;20392;-68
2022/04/27 05:53:56;;;;;;;0.40;0.40;;;7.80;99.90;;;;;;5011634;28;20476;-68
2022/04/27 05:56:23;;;;;;;0.40;0.20;;;7.90;99.90;;;;;;5011662;28;20400;-68
2022/04/27 05:58:49;;;;;;;0.40;0.20;;;8.00;99.90;;;;;;5005416;28;20405;-68
2022/04/27 06:01:15;;;;;;;0.40;0.20;;;8.00;99.90;;;;;;5004145;28;20405;-69
2022/04/27 06:03:41;;;;;;;0.40;0.20;;;8.10;99.90;;;;;;5021054;28;20396;-68
2022/04/27 06:06:07;;;;;;;0.40;0.30;;;8.00;99.90;;;;;;5007484;28;20483;-68
2022/04/27 06:08:33;;;;;;;0.40;0.20;;;8.10;99.90;;;;;;5010293;28;20878;-68
2022/04/27 06:10:58;;;;;;;0.40;0.20;;;8.10;99.90;;;;;;5012563;28;20392;-68
2022/04/27 06:13:24;;;;;;;0.40;0.20;;;8.10;99.90;;;;;;5004771;28;20743;-69
2022/04/27 06:15:50;;;;;;;0.40;0.20;;;8.20;99.90;;;;;;5008074;28;20407;-68
2022/04/27 06:18:16;;;;;;;0.40;0.20;;;8.40;99.90;;;;;;5007196;28;20981;-68
2022/04/27 06:20:42;;;;;;;0.40;0.20;;;8.40;99.90;;;;;;5007027;28;20402;-68
2022/04/27 06:23:09;;;;;;;0.40;0.20;;;8.50;99.90;;;;;;5012205;28;20894;-68
2022/04/27 06:25:36;;;;;;;0.40;0.20;;;8.50;99.90;;;;;;5004716;28;20404;-69
2022/04/27 06:28:03;;;;;;;0.40;0.30;;;8.50;99.90;;;;;;5006615;28;20433;-68
2022/04/27 06:30:28;;;;;;;0.50;0.50;;;8.60;99.90;;;;;;4996294;28;20452;-68
2022/04/27 06:32:54;;;;;;;0.70;0.70;;;8.60;99.90;;;;;;5009932;28;20388;-68
2022/04/27 06:35:20;;;;;;;0.50;0.50;;;8.60;99.90;;;;;;5010801;28;20889;-68
2022/04/27 06:37:46;;;;;;;0.40;0.20;;;8.50;99.90;;;;;;5005061;28;20464;-69
2022/04/27 06:40:12;;;;;;;0.40;0.20;;;8.70;99.90;;;;;;5007838;28;20423;-68
2022/04/27 06:42:45;;;;;;;0.40;0.30;;;8.90;99.90;;;;;;4999927;28;20398;-69
2022/04/27 06:45:11;;;;;;;0.40;0.20;;;8.90;99.90;;;;;;5010750;28;20440;-69
2022/04/27 06:47:37;;;;;;;0.40;0.20;;;9.00;99.90;;;;;;5011963;28;20488;-68
2022/04/27 06:50:04;;;;;;;0.40;0.20;;;8.80;99.90;;;;;;5010943;28;20856;-68
2022/04/27 06:52:30;;;;;;;0.40;0.20;;;8.90;99.90;;;;;;5011300;28;20726;-68
2022/04/27 06:54:56;;;;;;;0.40;0.25;;;8.90;99.90;;;;;;5025972;28;20854;-69
2022/04/27 06:57:21;;;;;;;0.40;0.40;;;8.90;99.90;;;;;;5011679;28;20392;-69
2022/04/27 06:59:47;;;;;;;0.47;0.47;;;9.00;99.90;;;;;;5011568;28;20384;-68
2022/04/27 07:02:15;;;;;;;0.40;0.20;;;9.00;99.90;;;;;;5010636;28;21128;-68
2022/04/27 07:04:43;;;;;;;0.40;0.20;;;9.00;99.90;;;;;;5011242;28;20917;-68
2022/04/27 07:07:09;;;;;;;0.40;0.30;;;9.00;99.90;;;;;;5010314;28;20412;-68
2022/04/27 07:09:36;;;;;;;0.40;0.20;;;9.00;99.90;;;;;;5011486;28;20408;-69
2022/04/27 07:12:02;;;;;;;0.50;0.50;;;9.20;99.90;;;;;;5010652;28;20376;-71
2022/04/27 07:14:28;;;;;;;0.40;0.20;;;9.30;99.90;;;;;;5009060;28;20401;-69
2022/04/27 07:16:54;;;;;;;0.60;0.50;;;9.30;99.90;;;;;;5003453;28;20847;-68
2022/04/27 07:19:20;;;;;;;0.40;0.20;;;9.30;99.90;;;;;;4993936;28;20436;-69
2022/04/27 07:21:46;;;;;;;0.40;0.30;;;9.40;99.90;;;;;;5004768;28;20491;-69
2022/04/27 07:24:12;;;;;;;0.40;0.20;;;9.30;99.90;;;;;;4994219;28;20469;-69
2022/04/27 07:26:38;;;;;;;0.60;0.60;;;9.50;99.90;;;;;;4993001;28;20738;-68
2022/04/27 07:29:03;;;;;;;0.40;0.20;;;9.50;99.90;;;;;;5001730;28;20420;-68
2022/04/27 07:31:29;;;;;;;0.40;0.20;;;9.60;99.90;;;;;;5007169;28;20414;-69
2022/04/27 07:33:55;;;;;;;0.40;0.20;;;9.70;99.90;;;;;;5011079;28;20495;-68
2022/04/27 07:36:21;;;;;;;0.40;0.20;;;9.80;99.90;;;;;;5010008;28;20902;-68
2022/04/27 07:38:47;;;;;;;0.40;0.20;;;9.90;99.90;;;;;;5025872;28;20443;-68
2022/04/27 07:41:13;;;;;;;0.40;0.30;;;10.10;99.90;;;;;;5009613;28;20413;-68
2022/04/27 07:43:39;;;;;;;0.40;0.20;;;10.40;99.90;;;;;;5010248;28;20841;-68
2022/04/27 07:46:06;;;;;;;0.40;0.20;;;10.50;99.90;;;;;;5022279;28;20918;-68
2022/04/27 07:48:34;;;;;;;0.40;0.20;;;10.70;99.90;;;;;;5000826;28;20907;-68
2022/04/27 07:51:02;;;;;;;0.40;0.20;;;10.80;99.90;;;;;;4999276;28;20465;-69
2022/04/27 07:53:28;;;;;;;0.40;0.20;;;10.90;99.90;;;;;;5007840;28;20384;-71
2022/04/27 07:55:53;;;;;;;0.45;0.35;;;10.90;99.90;;;;;;5007890;28;20411;-68
2022/04/27 07:58:19;;;;;;;0.60;0.60;;;11.00;99.90;;;;;;5005994;28;20890;-68
2022/04/27 08:00:45;;;;;;;0.40;0.20;;;11.10;99.90;;;;;;5015296;28;20434;-69
2022/04/27 08:03:11;;;;;;;0.70;0.70;;;11.20;99.90;;;;;;5003719;28;20436;-68
2022/04/27 08:05:37;;;;;;;0.40;0.20;;;11.20;99.90;;;;;;5026294;28;20403;-70
2022/04/27 08:08:03;;;;;;;0.40;0.20;;;11.40;99.90;;;;;;5009928;28;20423;-68
2022/04/27 08:10:29;;;;;;;0.40;0.20;;;11.40;99.90;;;;;;5002642;28;20388;-68
2022/04/27 08:12:55;;;;;;;0.40;0.20;;;11.60;99.90;;;;;;5007974;28;20447;-69
2022/04/27 08:15:24;;;;;;;0.40;0.30;;;11.80;99.90;;;;;;5009695;28;20817;-68
2022/04/27 08:18:00;;;;;;;0.40;0.20;;;11.60;99.90;;;;;;5030258;28;20403;-68
2022/04/27 08:23:14;;;;;;;0.45;0.43;;;11.70;99.90;;;;;;5009378;28;20396;-68
2022/04/27 08:25:40;;;;;;;0.40;0.20;;;11.80;99.90;;;;;;5001599;28;20404;-69
2022/04/27 08:28:07;;;;;;;0.40;0.20;;;12.00;99.90;;;;;;5017687;28;20460;-68
2022/04/27 08:30:41;;;;;;;0.60;0.60;;;12.40;99.90;;;;;;5016276;28;20392;-68
2022/04/27 08:33:08;;;;;;;0.40;0.20;;;12.70;99.90;;;;;;5016755;28;20988;-68
2022/04/27 08:35:34;;;;;;;0.40;0.20;;;12.60;99.50;;;;;;5017350;28;20391;-69
2022/04/27 08:38:01;;;;;;;1.35;1.17;;;12.40;99.70;;;;;;5022893;28;20387;-68
2022/04/27 08:40:28;;;;;;;0.40;0.20;;;12.40;99.00;;;;;;5018892;28;20470;-69
2022/04/27 08:42:54;;;;;;;0.75;0.43;;;12.40;96.10;;;;;;5018137;28;20816;-70
2022/04/27 08:45:21;;;;;;;0.40;0.30;;;12.40;97.40;;;;;;5022756;28;20397;-69
2022/04/27 08:47:49;;;;;;;0.40;0.20;;;12.40;99.80;;;;;;5020771;28;20434;-69
2022/04/27 08:50:21;;;;;;;0.40;0.20;;;12.40;99.30;;;;;;5023479;28;20456;-69
2022/04/27 08:52:48;;;;;;;0.40;0.20;;;12.50;99.90;;;;;;5017686;28;20387;-69
2022/04/27 08:55:14;;;;;;;0.40;0.20;;;12.60;98.70;;;;;;5017163;28;20396;-69
2022/04/27 08:57:43;;;;;;;0.40;0.20;;;12.70;99.20;;;;;;5017578;28;20811;-70
2022/04/27 09:00:14;;;;;;;0.40;0.30;;;12.90;94.60;;;;;;5016682;28;20955;-69
2022/04/27 09:02:40;;;;;;;0.40;0.20;;;12.90;95.60;;;;;;5020614;28;20440;-68
2022/04/27 09:05:13;;;;;;;0.40;0.20;;;12.80;93.80;;;;;;5018177;28;20407;-70
2022/04/27 09:07:44;;;;;;;0.40;0.20;;;12.70;95.00;;;;;;5020014;28;20427;-68
2022/04/27 09:10:12;;;;;;;0.40;0.20;;;12.90;96.40;;;;;;5021518;28;20867;-70
2022/04/27 09:12:55;;;;;;;0.40;0.20;;;13.10;95.40;;;;;;5020648;28;20500;-68
2022/04/27 09:15:26;;;;;;;0.40;0.20;;;13.30;95.00;;;;;;5020532;28;20398;-68
2022/04/27 09:20:47;;;;;;;0.40;0.20;;;13.60;97.90;;;;;;5018204;28;20428;-68
2022/04/27 09:23:28;;;;;;;0.40;0.20;;;13.70;99.90;;;;;;5017542;28;20494;-69
2022/04/27 09:26:00;;;;;;;0.40;0.20;;;13.20;99.90;;;;;;5012489;28;20408;-68
2022/04/27 09:28:30;;;;;;;0.40;0.20;;;13.00;99.90;;;;;;5004043;28;20979;-70
2022/04/27 09:30:56;;;;;;;0.80;0.70;;;13.10;99.90;;;;;;5022039;28;20406;-69
2022/04/27 09:33:36;;;;;;;0.40;0.20;;;12.60;99.90;;;;;;5010632;28;20419;-68
2022/04/27 09:36:23;;;;;;;0.80;0.70;;;12.90;99.90;;;;;;5007630;28;20983;-69
2022/04/27 09:38:49;;;;;;;0.40;0.30;;;13.00;99.90;;;;;;5003956;28;20428;-68
2022/04/27 09:41:15;;;;;;;0.50;0.50;;;13.20;99.90;;;;;;5003559;28;20801;-68
2022/04/27 09:43:49;;;;;;;0.40;0.25;;;13.30;99.90;;;;;;5011685;28;20820;-68
2022/04/27 09:46:25;;;;;;;0.40;0.30;;;13.60;99.90;;;;;;4993740;28;20403;-69
2022/04/27 09:49:14;;;;;;;0.40;0.20;;;13.30;99.90;;;;;;5009978;28;20416;-69
2022/04/27 09:51:50;;;;;;;0.70;0.50;;;13.20;99.90;;;;;;5004898;28;20381;-69
2022/04/27 09:54:23;;;;;;;0.40;0.30;;;13.30;99.90;;;;;;5009008;28;20392;-68
2022/04/27 09:56:56;;;;;;;0.40;0.30;;;13.10;99.90;;;;;;5012060;28;20406;-68
2022/04/27 09:59:29;;;;;;;0.40;0.20;;;13.20;99.90;;;;;;5012476;28;20479;-68
2022/04/27 10:02:20;;;;;;;0.40;0.30;;;13.50;99.90;;;;;;5011949;28;20712;-69
2022/04/27 10:04:46;;;;;;;0.40;0.25;;;13.30;99.90;;;;;;5011252;28;20405;-68
2022/04/27 10:07:15;;;;;;;0.40;0.20;;;13.30;99.90;;;;;;5012625;28;20416;-68
2022/04/27 10:09:42;;;;;;;0.40;0.20;;;13.70;99.90;;;;;;5011955;28;20412;-72
2022/04/27 10:12:11;;;;;;;0.40;0.20;;;13.60;99.90;;;;;;5009528;28;20401;-68
2022/04/27 10:14:37;;;;;;;0.40;0.20;;;13.70;99.90;;;;;;5003461;28;20817;-70
2022/04/27 10:17:04;;;;;;;0.40;0.20;;;13.90;99.90;;;;;;5007950;28;20477;-69
2022/04/27 10:19:30;;;;;;;0.40;0.30;;;14.00;99.90;;;;;;5010864;28;20512;-68
2022/04/27 10:21:59;;;;;;;1.00;0.35;;;14.30;99.30;;;;;;5005539;28;20418;-69
2022/04/27 10:24:34;;;;;;;0.40;0.20;;;14.20;99.40;;;;;;5010760;28;20400;-69
2022/04/27 10:27:48;;;;;;;0.80;0.70;;;14.30;99.20;;;;;;5005279;28;20445;-68
2022/04/27 10:30:16;;;;;;;0.40;0.20;;;14.40;99.90;;;;;;4977193;28;20453;-69
2022/04/27 10:32:51;;;;;;;0.40;0.30;;;14.90;99.90;;;;;;5023622;28;20444;-68
2022/04/27 10:35:38;;;;;;;0.40;0.20;;;14.90;95.70;;;;;;5000912;28;20494;-70
2022/04/27 10:38:07;;;;;;;0.40;0.20;;;14.50;96.30;;;;;;4991517;28;20426;-70
2022/04/27 10:40:42;;;;;;;0.40;0.20;;;14.30;96.00;;;;;;5022093;28;20742;-68
2022/04/27 10:43:08;;;;;;;0.40;0.30;;;14.50;99.20;;;;;;5011253;28;20454;-68
2022/04/27 10:45:35;;;;;;;0.40;0.20;;;14.40;97.80;;;;;;5007523;28;20401;-69
2022/04/27 10:48:03;;;;;;;0.40;0.20;;;14.90;97.40;;;;;;5005074;28;20459;-70
2022/04/27 10:50:31;;;;;;;0.40;0.35;;;15.20;94.30;;;;;;5003694;28;20404;-70
2022/04/27 10:53:13;;;;;;;0.40;0.20;;;15.30;93.60;;;;;;5005087;28;20419;-68
2022/04/27 10:55:48;;;;;;;0.40;0.20;;;15.30;92.90;;;;;;5005561;28;20403;-69
2022/04/27 10:58:34;;;;;;;0.40;0.20;;;15.70;92.70;;;;;;5010360;28;20837;-68
2022/04/27 11:01:02;;;;;;;0.40;0.20;;;15.20;93.60;;;;;;5010930;28;20396;-69
2022/04/27 11:03:31;;;;;;;0.40;0.20;;;15.60;93.30;;;;;;5025415;28;20392;-69
2022/04/27 11:06:01;;;;;;;0.40;0.20;;;16.40;94.80;;;;;;5029112;28;20491;-69
2022/04/27 11:08:36;;;;;;;0.40;0.20;;;16.40;92.70;;;;;;5029960;28;20420;-69
2022/04/27 11:11:06;;;;;;;0.40;0.40;;;16.90;92.90;;;;;;5030937;28;20863;-68
2022/04/27 11:13:33;;;;;;;0.40;0.20;;;16.40;94.60;;;;;;5029979;28;20784;-68
2022/04/27 11:16:12;;;;;;;0.40;0.40;;;17.10;95.70;;;;;;5031159;28;20382;-69
2022/04/27 11:18:52;;;;;;;0.40;0.30;;;17.40;90.50;;;;;;5030442;28;20387;-68
2022/04/27 11:21:24;;;;;;;0.40;0.30;;;17.30;95.10;;;;;;5031074;28;20707;-70
2022/04/27 11:23:51;;;;;;;0.40;0.30;;;16.90;92.80;;;;;;5030641;28;20863;-68
2022/04/27 11:26:17;;;;;;;0.40;0.30;;;17.30;92.10;;;;;;5030945;28;20379;-69
2022/04/27 11:28:45;;;;;;;0.40;0.20;;;18.00;90.20;;;;;;5030149;28;20588;-68
2022/04/27 11:31:14;;;;;;;0.40;0.20;;;17.60;90.30;;;;;;5030734;28;20379;-68
2022/04/27 11:33:41;;;;;;;0.40;0.30;;;17.80;87.30;;;;;;5030305;28;20383;-69
2022/04/27 11:36:27;;;;;;;0.50;0.50;;;18.10;84.30;;;;;;5030798;28;20410;-69
2022/04/27 11:38:54;;;;;;;0.40;0.20;;;19.00;85.70;;;;;;5029989;28;20398;-69
2022/04/27 11:41:23;;;;;;;0.40;0.20;;;19.30;82.20;;;;;;5030417;28;20383;-69
2022/04/27 11:43:56;;;;;;;0.40;0.40;;;18.40;82.30;;;;;;5029978;28;20379;-69
2022/04/27 11:46:22;;;;;;;0.40;0.30;;;18.20;85.70;;;;;;5030539;28;20379;-69
2022/04/27 11:48:49;;;;;;;0.40;0.20;;;18.20;86.80;;;;;;5045076;28;20422;-69
2022/04/27 11:51:15;;;;;;;0.40;0.20;;;19.30;82.00;;;;;;5030681;28;20446;-68
2022/04/27 11:53:48;;;;;;;0.40;0.30;;;18.40;86.00;;;;;;5028385;28;20914;-69
2022/04/27 11:56:18;;;;;;;0.40;0.30;;;18.90;85.30;;;;;;5030408;28;20407;-69
2022/04/27 11:58:45;;;;;;;0.40;0.20;;;17.10;91.40;;;;;;5029747;28;20398;-70
2022/04/27 12:01:20;;;;;;;0.40;0.30;;;16.80;90.40;;;;;;5018255;28;20740;-69
2022/04/27 12:03:46;;;;;;;0.40;0.20;;;16.60;91.30;;;;;;4998949;28;20724;-69
2022/04/27 12:06:19;;;;;;;1.90;0.60;;;16.40;91.10;;;;;;4991068;28;20406;-68
2022/04/27 12:08:45;;;;;;;0.40;0.20;;;16.30;92.50;;;;;;4990217;28;20418;-69
2022/04/27 12:11:19;;;;;;;0.40;0.20;;;17.00;90.60;;;;;;4991219;28;20735;-69
2022/04/27 12:13:45;;;;;;;0.40;0.20;;;17.80;86.20;;;;;;4990392;28;20382;-71
2022/04/27 12:16:11;;;;;;;0.40;0.30;;;17.20;85.00;;;;;;4991306;28;20444;-69
2022/04/27 12:18:51;;;;;;;0.40;0.30;;;17.70;84.50;;;;;;4991196;28;20394;-71
2022/04/27 12:21:25;;;;;;;0.40;0.20;;;17.30;83.00;;;;;;4991556;28;20721;-68
2022/04/27 12:23:51;;;;;;;0.40;0.20;;;17.30;83.20;;;;;;4990466;28;20386;-70
2022/04/27 12:26:18;;;;;;;0.60;0.50;;;18.30;85.00;;;;;;4991624;28;20704;-70
2022/04/27 12:28:47;;;;;;;0.57;0.50;;;18.20;82.10;;;;;;4990989;28;20706;-69
2022/04/27 12:31:17;;;;;;;0.40;0.40;;;19.50;78.40;;;;;;4996951;28;20383;-70
2022/04/27 12:33:50;;;;;;;0.40;0.20;;;19.00;77.30;;;;;;5030073;28;20387;-70
2022/04/27 12:39:23;;;;;;;0.40;0.20;;;20.90;71.80;;;;;;5029824;28;20826;-70
2022/04/27 12:41:51;;;;;;;0.40;0.20;;;20.70;67.70;;;;;;5030505;28;20395;-70
2022/04/27 12:44:24;;;;;;;0.40;0.22;;;21.00;69.50;;;;;;5029476;28;20379;-70
2022/04/27 12:47:01;;;;;;;0.40;0.20;;;21.60;65.10;;;;;;5030239;28;20383;-70
2022/04/27 12:49:30;;;;;;;0.40;0.20;;;21.10;65.70;;;;;;5030083;28;20457;-70
2022/04/27 12:52:13;;;;;;;0.40;0.30;;;20.20;66.20;;;;;;5033860;28;20433;-70
2022/04/27 12:54:39;;;;;;;0.40;0.30;;;21.40;66.50;;;;;;5033669;28;20570;-70
2022/04/27 12:57:06;;;;;;;0.40;0.30;;;20.40;67.00;;;;;;5033022;28;20379;-72
2022/04/27 12:59:32;;;;;;;0.40;0.30;;;20.80;66.80;;;;;;5033590;28;20470;-69
2022/04/27 13:02:00;;;;;;;0.40;0.20;;;21.60;67.60;;;;;;5033336;28;20391;-69
2022/04/27 13:04:28;;;;;;;0.90;0.80;;;20.90;67.00;;;;;;5032769;28;20459;-70
2022/04/27 13:06:54;;;;;;;0.40;0.20;;;21.10;66.20;;;;;;5026524;28;20417;-69
2022/04/27 13:12:10;;;;;;;0.40;0.30;;;21.40;70.00;;;;;;5005416;28;20400;-68
2022/04/27 13:14:36;;;;;;;0.40;0.30;;;20.60;63.40;;;;;;5012556;28;20391;-67
2022/04/27 13:17:01;;;;;;;0.40;0.30;;;21.00;65.00;;;;;;5009839;28;20876;-69
2022/04/27 13:19:27;;;;;;;0.70;0.70;;;21.60;60.90;;;;;;5007584;28;20405;-68
2022/04/27 13:21:53;;;;;;;0.40;0.30;;;22.20;58.90;;;;;;5014002;28;20392;-68